createdAt,value
2019-06-26T00:01:13.589Z,477.63
2019-06-26T00:03:45.894Z,456.03
2019-06-26T00:06:18.188Z,429.90
2019-06-26T00:08:50.485Z,452.13
2019-06-26T00:11:24.791Z,491.90
2019-06-26T00:13:57.014Z,469.47
2019-06-26T00:16:29.258Z,507.13
2019-06-26T00:19:01.586Z,538.57
2019-06-26T00:21:33.882Z,540.27
2019-06-26T00:24:06.672Z,501.57
2019-06-26T00:26:38.926Z,480.87
2019-06-26T00:29:12.272Z,500.40
2019-06-26T00:31:44.586Z,544.27
2019-06-26T00:34:17.842Z,492.83
2019-06-26T00:36:50.215Z,523.17
2019-06-26T00:39:23.617Z,533.80
2019-06-26T00:41:55.864Z,427.10
2019-06-26T00:44:28.285Z,453.37
2019-06-26T00:47:00.543Z,466.93
2019-06-26T00:49:32.839Z,440.50
2019-06-26T00:52:05.110Z,453.10
2019-06-26T00:54:39.472Z,458.73
2019-06-26T00:57:11.918Z,461.33
2019-06-26T00:59:44.335Z,470.73
2019-06-26T01:02:16.619Z,478.30
2019-06-26T01:04:51.237Z,438.27
2019-06-26T01:07:25.750Z,406.78
2019-06-26T01:09:58.956Z,414.43
2019-06-26T01:12:31.389Z,427.80
2019-06-26T01:15:04.411Z,435.13
2019-06-26T01:17:36.726Z,379.97
2019-06-26T01:20:09.530Z,335.70
2019-06-26T01:22:42.785Z,320.10
2019-06-26T01:25:15.583Z,322.33
2019-06-26T01:27:48.740Z,361.50
2019-06-26T01:30:21.232Z,340.87
2019-06-26T01:32:53.538Z,350.90
2019-06-26T01:35:25.873Z,340.87
2019-06-26T01:37:58.224Z,435.40
2019-06-26T01:40:30.591Z,391.33
2019-06-26T01:43:05.139Z,418.50
2019-06-26T01:45:37.522Z,379.85
2019-06-26T01:48:11.285Z,388.07
2019-06-26T01:50:43.829Z,426.50
2019-06-26T01:53:17.139Z,409.83
2019-06-26T01:55:49.474Z,429.53
2019-06-26T01:58:22.962Z,493.48
2019-06-26T02:00:55.311Z,472.95
2019-06-26T02:03:27.612Z,489.55
2019-06-26T02:05:59.899Z,439.57
2019-06-26T02:08:33.220Z,440.05
2019-06-26T02:11:05.492Z,445.48
2019-06-26T02:13:37.748Z,477.45
2019-06-26T02:16:11.153Z,447.67
2019-06-26T02:18:51.081Z,508.97
2019-06-26T02:21:23.368Z,465.38
2019-06-26T02:23:55.615Z,454.25
2019-06-26T02:26:28.337Z,441.42
2019-06-26T02:29:01.726Z,448.63
2019-06-26T02:31:34.035Z,440.82
2019-06-26T02:34:07.435Z,410.02
2019-06-26T02:36:39.737Z,437.45
2019-06-26T02:39:12.064Z,406.35
2019-06-26T02:41:44.395Z,410.97
2019-06-26T02:44:16.674Z,419.60
2019-06-26T02:46:49.941Z,447.10
2019-06-26T02:49:22.226Z,427.37
2019-06-26T02:51:55.547Z,443.43
2019-06-26T02:54:27.839Z,422.00
2019-06-26T02:57:00.187Z,438.13
2019-06-26T02:59:32.477Z,423.87
2019-06-26T03:02:04.823Z,401.80
2019-06-26T03:04:38.108Z,403.62
2019-06-26T03:07:10.399Z,414.95
2019-06-26T03:09:42.732Z,414.27
2019-06-26T03:12:15.113Z,469.60
2019-06-26T03:14:47.390Z,392.82
2019-06-26T03:17:19.730Z,242.18
2019-06-26T03:19:52.054Z,234.67
2019-06-26T03:22:24.327Z,6.75
2019-06-26T03:24:56.611Z,6.65
2019-06-26T03:27:28.894Z,6.05
2019-06-26T03:30:01.064Z,7.78
2019-06-26T03:32:34.538Z,7.28
2019-06-26T03:35:07.611Z,7.22
2019-06-26T03:37:40.877Z,7.00
2019-06-26T03:40:13.525Z,7.55
2019-06-26T03:42:45.806Z,8.08
2019-06-26T03:45:25.602Z,7.53
2019-06-26T03:47:53.038Z,6.92
2019-06-26T03:50:28.405Z,6.17
2019-06-26T03:53:00.718Z,6.83
2019-06-26T03:55:33.041Z,6.40
2019-06-26T03:58:08.588Z,5.33
2019-06-26T04:00:42.456Z,4.08
2019-06-26T04:03:14.626Z,4.70
2019-06-26T04:05:47.812Z,6.60
2019-06-26T04:08:22.165Z,3.92
2019-06-26T04:10:54.429Z,3.90
2019-06-26T04:13:26.589Z,23.67
2019-06-26T04:15:58.898Z,3.77
2019-06-26T04:18:31.149Z,68.15
2019-06-26T04:21:03.435Z,4.45
2019-06-26T04:23:36.721Z,284.50
2019-06-26T04:26:08.977Z,264.20
2019-06-26T04:28:42.522Z,276.67
2019-06-26T04:31:16.798Z,292.18
2019-06-26T04:33:49.080Z,298.45
2019-06-26T04:36:22.343Z,388.87
2019-06-26T04:38:54.739Z,378.93
2019-06-26T04:41:27.050Z,189.20
2019-06-26T04:44:01.362Z,425.10
2019-06-26T04:46:33.745Z,479.10
2019-06-26T04:49:08.447Z,707.08
2019-06-26T04:51:41.742Z,674.23
2019-06-26T04:54:14.064Z,677.73
2019-06-26T04:56:46.377Z,664.65
2019-06-26T04:59:19.187Z,693.15
2019-06-26T05:01:51.495Z,674.85
2019-06-26T05:04:26.818Z,774.23
2019-06-26T05:06:59.169Z,721.50
2019-06-26T05:09:32.457Z,565.08
2019-06-26T05:12:04.889Z,455.43
2019-06-26T05:14:37.231Z,3.10
2019-06-26T05:17:09.522Z,3.37
2019-06-26T05:19:45.501Z,2.62
2019-06-26T05:22:17.707Z,2.98
2019-06-26T05:24:49.877Z,3.05
2019-06-26T05:27:22.101Z,3.22
2019-06-26T05:29:55.400Z,3.60
2019-06-26T05:32:27.507Z,3.25
2019-06-26T05:34:59.687Z,3.00
2019-06-26T05:37:31.902Z,3.12
2019-06-26T05:40:06.731Z,3.22
2019-06-26T05:42:39.102Z,2.62
2019-06-26T05:45:11.901Z,450.27
2019-06-26T05:50:16.722Z,3.00
2019-06-26T05:52:50.449Z,2.92
2019-06-26T05:55:22.846Z,48.38
2019-06-26T05:57:56.174Z,711.00
2019-06-26T06:00:28.569Z,730.65
2019-06-26T06:03:00.973Z,728.77
2019-06-26T06:05:33.400Z,832.58
2019-06-26T06:08:06.614Z,798.10
2019-06-26T06:10:39.184Z,764.65
2019-06-26T06:13:11.504Z,851.55
2019-06-26T06:15:45.752Z,808.27
2019-06-26T06:18:21.101Z,750.12
2019-06-26T06:20:59.297Z,811.75
2019-06-26T06:23:31.744Z,786.20
2019-06-26T06:26:04.094Z,808.70
2019-06-26T06:28:36.508Z,808.55
2019-06-26T06:31:11.780Z,793.60
2019-06-26T06:33:44.215Z,809.62
2019-06-26T06:36:16.582Z,825.90
2019-06-26T06:38:58.304Z,784.98
2019-06-26T06:41:45.485Z,775.02
2019-06-26T06:44:35.199Z,775.33
2019-06-26T06:47:09.130Z,818.92
2019-06-26T06:52:16.625Z,828.75
2019-06-26T06:54:48.559Z,851.85
2019-06-26T06:57:21.966Z,842.37
2019-06-26T06:59:55.242Z,867.17
2019-06-26T07:02:27.599Z,828.58
2019-06-26T07:05:00.211Z,777.08
2019-06-26T07:07:32.700Z,758.80
2019-06-26T07:10:07.722Z,764.67
2019-06-26T07:12:41.234Z,737.42
2019-06-26T07:15:14.223Z,856.78
2019-06-26T07:17:47.719Z,783.07
2019-06-26T07:20:21.045Z,719.05
2019-06-26T07:22:58.600Z,791.60
2019-06-26T07:25:30.976Z,754.50
2019-06-26T07:28:03.423Z,724.50
2019-06-26T07:30:35.792Z,761.47
2019-06-26T07:33:13.006Z,798.67
2019-06-26T07:35:48.297Z,802.13
2019-06-26T07:38:22.646Z,757.33
2019-06-26T07:41:00.431Z,817.83
2019-06-26T07:43:33.752Z,705.67
2019-06-26T07:46:07.137Z,756.42
2019-06-26T07:48:40.445Z,866.77
2019-06-26T07:51:12.802Z,800.13
2019-06-26T07:53:47.364Z,807.15
2019-06-26T07:56:19.926Z,845.60
2019-06-26T07:58:54.954Z,806.23
2019-06-26T08:01:28.489Z,776.22
2019-06-26T08:04:05.902Z,801.73
2019-06-26T08:06:37.600Z,780.48
2019-06-26T08:09:10.210Z,815.50
2019-06-26T08:11:45.189Z,817.45
2019-06-26T08:14:17.717Z,822.98
2019-06-26T08:16:52.435Z,840.50
2019-06-26T08:19:29.887Z,744.90
2019-06-26T08:22:05.671Z,707.40
2019-06-26T08:24:38.026Z,708.67
2019-06-26T08:27:15.871Z,781.65
2019-06-26T08:29:49.358Z,779.77
2019-06-26T08:32:26.012Z,783.55
2019-06-26T08:35:00.082Z,732.67
2019-06-26T08:37:33.519Z,741.48
2019-06-26T08:40:08.995Z,676.02
2019-06-26T08:42:41.565Z,677.58
2019-06-26T08:45:15.629Z,11.12
2019-06-26T08:47:51.202Z,2.17
2019-06-26T08:50:25.103Z,642.03
2019-06-26T08:52:57.922Z,584.85
2019-06-26T08:55:30.636Z,641.42
2019-06-26T08:58:03.683Z,612.77
2019-06-26T09:00:49.843Z,627.40
2019-06-26T09:03:25.885Z,631.65
2019-06-26T09:05:58.454Z,668.05
2019-06-26T09:08:31.083Z,616.40
2019-06-26T09:11:03.636Z,548.55
2019-06-26T09:13:37.653Z,528.90
2019-06-26T09:16:11.127Z,566.90
2019-06-26T09:18:43.657Z,503.32
2019-06-26T09:21:16.130Z,515.65
2019-06-26T09:23:48.928Z,492.35
2019-06-26T09:26:21.418Z,509.03
2019-06-26T09:28:58.383Z,485.80
2019-06-26T09:31:32.550Z,480.00
2019-06-26T09:34:04.901Z,395.45
2019-06-26T09:36:37.301Z,367.37
2019-06-26T09:39:09.822Z,374.85
2019-06-26T09:41:42.128Z,352.62
2019-06-26T09:44:15.673Z,357.15
2019-06-26T09:46:49.136Z,360.35
2019-06-26T09:49:21.495Z,332.77
2019-06-26T09:51:53.968Z,314.98
2019-06-26T09:54:27.794Z,314.65
2019-06-26T09:57:01.404Z,301.20
2019-06-26T09:59:34.778Z,333.63
2019-06-26T10:04:42.771Z,385.43
2019-06-26T10:07:21.391Z,441.12
2019-06-26T10:09:53.844Z,329.43
2019-06-26T10:12:26.272Z,344.18
2019-06-26T10:14:59.738Z,349.93
2019-06-26T10:17:32.133Z,391.12
2019-06-26T10:20:09.658Z,393.30
2019-06-26T10:22:43.466Z,349.23
2019-06-26T10:25:17.410Z,359.50
2019-06-26T10:27:50.634Z,369.70
2019-06-26T10:30:25.544Z,360.45
2019-06-26T10:33:00.087Z,352.00
2019-06-26T10:35:34.033Z,388.73
2019-06-26T10:38:09.043Z,359.73
2019-06-26T10:40:42.829Z,390.30
2019-06-26T10:43:15.441Z,380.92
2019-06-26T10:45:52.244Z,423.55
2019-06-26T10:48:26.422Z,416.70
2019-06-26T10:51:01.414Z,462.95
2019-06-26T10:53:34.223Z,636.60
2019-06-26T10:56:06.776Z,286.80
2019-06-26T10:58:39.189Z,136.40
2019-06-26T11:01:12.709Z,1.83
2019-06-26T11:03:44.981Z,410.82
2019-06-26T11:06:17.618Z,548.25
2019-06-26T11:08:51.320Z,378.00
2019-06-26T11:11:24.857Z,2.00
2019-06-26T11:13:57.154Z,288.25
2019-06-26T11:16:29.586Z,2.33
2019-06-26T11:19:01.852Z,2.10
2019-06-26T11:21:34.207Z,2.10
2019-06-26T11:24:06.576Z,2.47
2019-06-26T11:26:39.029Z,1.87
2019-06-26T11:29:31.952Z,172.22
2019-06-26T11:32:08.468Z,415.80
2019-06-26T11:34:39.581Z,413.42
2019-06-26T11:37:15.809Z,362.63
2019-06-26T11:39:48.419Z,445.32
2019-06-26T11:42:20.833Z,495.50
2019-06-26T11:44:53.420Z,410.95
2019-06-26T11:47:25.996Z,485.67
2019-06-26T11:50:00.500Z,440.15
2019-06-26T11:52:33.360Z,471.03
2019-06-26T11:55:11.064Z,459.77
2019-06-26T11:57:45.200Z,527.35
2019-06-26T12:00:24.602Z,533.00
2019-06-26T12:02:59.597Z,605.75
2019-06-26T12:05:52.769Z,639.92
2019-06-26T12:08:42.832Z,603.02
2019-06-26T12:11:16.164Z,643.63
2019-06-26T12:14:04.919Z,581.95
2019-06-26T12:16:37.439Z,528.75
2019-06-26T12:19:28.683Z,570.17
2019-06-26T12:22:17.431Z,566.62
2019-06-26T12:25:07.463Z,552.75
2019-06-26T12:27:57.205Z,522.27
2019-06-26T12:30:46.886Z,492.87
2019-06-26T12:33:23.867Z,471.03
2019-06-26T12:35:58.035Z,488.55
2019-06-26T12:38:48.622Z,516.67
2019-06-26T12:44:09.154Z,467.42
2019-06-26T12:46:58.574Z,466.73
2019-06-26T12:49:48.272Z,469.10
2019-06-26T12:52:40.496Z,464.70
2019-06-26T12:55:32.860Z,430.83
2019-06-26T12:58:20.737Z,405.95
2019-06-26T13:00:54.228Z,414.50
2019-06-26T13:03:26.653Z,421.12
2019-06-26T13:05:59.202Z,442.33
2019-06-26T13:08:31.560Z,448.67
2019-06-26T13:11:04.996Z,475.57
2019-06-26T13:13:37.458Z,523.33
2019-06-26T13:16:09.815Z,495.77
2019-06-26T13:18:42.265Z,527.60
2019-06-26T13:21:15.712Z,531.87
2019-06-26T13:23:48.216Z,570.97
2019-06-26T13:26:20.626Z,582.30
2019-06-26T13:28:52.921Z,624.80
2019-06-26T13:31:27.426Z,596.00
2019-06-26T13:36:31.116Z,629.75
2019-06-26T13:39:05.658Z,649.83
2019-06-26T13:41:38.045Z,689.27
2019-06-26T13:44:10.494Z,692.20
2019-06-26T13:46:44.308Z,653.15
2019-06-26T13:49:16.891Z,684.58
2019-06-26T13:51:55.350Z,706.10
2019-06-26T13:54:28.005Z,695.35
2019-06-26T13:57:01.730Z,670.65
2019-06-26T13:59:38.550Z,673.00
2019-06-26T14:02:12.163Z,669.73
2019-06-26T14:04:45.610Z,680.23
2019-06-26T14:07:18.064Z,659.70
2019-06-26T14:09:51.652Z,713.22
2019-06-26T14:12:24.323Z,728.70
2019-06-26T14:14:59.663Z,710.27
2019-06-26T14:17:34.726Z,718.95
2019-06-26T14:20:07.447Z,728.17
2019-06-26T14:22:39.781Z,701.40
2019-06-26T14:25:13.712Z,710.42
2019-06-26T14:27:46.357Z,719.97
2019-06-26T14:30:20.955Z,712.75
2019-06-26T14:32:58.028Z,711.35
2019-06-26T14:35:30.475Z,721.20
2019-06-26T14:38:02.798Z,735.87
2019-06-26T14:40:37.047Z,712.58
2019-06-26T14:43:09.679Z,707.92
2019-06-26T14:45:44.180Z,705.22
2019-06-26T14:48:16.688Z,689.27
2019-06-26T14:50:49.055Z,689.27
2019-06-26T14:53:21.667Z,704.55
2019-06-26T14:55:53.994Z,689.70
2019-06-26T14:58:26.333Z,689.63
2019-06-26T15:00:58.811Z,647.63
2019-06-26T15:03:31.278Z,630.77
2019-06-26T15:08:42.241Z,622.17
2019-06-26T15:11:15.749Z,596.92
2019-06-26T15:13:50.287Z,573.27
2019-06-26T15:18:55.105Z,524.55
2019-06-26T15:21:27.672Z,564.02
2019-06-26T15:24:00.154Z,634.20
2019-06-26T15:26:33.482Z,559.15
2019-06-26T15:29:06.028Z,619.28
2019-06-26T15:31:38.411Z,642.42
2019-06-26T15:34:10.820Z,635.30
2019-06-26T15:36:43.222Z,642.90
2019-06-26T15:39:15.542Z,629.10
2019-06-26T15:41:48.829Z,619.92
2019-06-26T15:44:21.224Z,626.37
2019-06-26T15:46:53.697Z,636.67
2019-06-26T15:49:26.155Z,599.20
2019-06-26T15:52:14.186Z,620.67
2019-06-26T15:54:32.600Z,481.60
2019-06-26T15:57:04.936Z,590.00
2019-06-26T15:59:37.414Z,480.85
2019-06-26T16:02:09.768Z,605.73
2019-06-26T16:04:45.636Z,562.58
2019-06-26T16:07:18.815Z,544.50
2019-06-26T16:09:51.748Z,556.65
2019-06-26T16:12:25.516Z,539.30
2019-06-26T16:14:58.998Z,565.02
2019-06-26T16:17:34.101Z,572.42
2019-06-26T16:20:08.220Z,565.47
2019-06-26T16:22:40.524Z,561.62
2019-06-26T16:25:13.383Z,576.45
2019-06-26T16:28:04.274Z,552.45
2019-06-26T16:30:29.376Z,572.95
2019-06-26T16:33:04.180Z,567.67
2019-06-26T16:35:36.508Z,555.58
2019-06-26T16:38:09.053Z,585.15
2019-06-26T16:40:41.538Z,584.65
2019-06-26T16:43:16.497Z,588.27
2019-06-26T16:45:48.808Z,555.17
2019-06-26T16:48:22.030Z,586.55
2019-06-26T16:50:54.503Z,568.50
2019-06-26T16:53:27.186Z,531.58
2019-06-26T16:56:01.118Z,567.87
2019-06-26T16:58:33.564Z,562.90
2019-06-26T17:01:06.833Z,543.25
2019-06-26T17:03:40.156Z,538.15
2019-06-26T17:06:12.425Z,575.08
2019-06-26T17:08:45.806Z,562.08
2019-06-26T17:11:18.140Z,572.42
2019-06-26T17:13:52.677Z,548.57
2019-06-26T17:16:25.106Z,527.97
2019-06-26T17:18:57.707Z,547.35
2019-06-26T17:21:31.172Z,499.98
2019-06-26T17:24:03.808Z,516.48
2019-06-26T17:26:36.263Z,495.90
2019-06-26T17:29:08.609Z,518.50
2019-06-26T17:31:40.941Z,524.30
2019-06-26T17:34:16.317Z,532.42
2019-06-26T17:36:50.733Z,537.58
2019-06-26T17:39:24.216Z,440.10
2019-06-26T17:41:57.044Z,447.82
2019-06-26T17:44:29.342Z,506.90
2019-06-26T17:47:05.502Z,542.85
2019-06-26T17:49:35.702Z,482.73
2019-06-26T17:52:08.069Z,459.93
2019-06-26T17:54:40.443Z,479.27
2019-06-26T17:57:12.854Z,501.22
2019-06-26T17:59:45.260Z,485.25
2019-06-26T18:02:17.578Z,506.20
2019-06-26T18:04:50.226Z,505.37
2019-06-26T18:07:23.837Z,507.15
2019-06-26T18:09:56.179Z,531.02
2019-06-26T18:12:28.524Z,543.75
2019-06-26T18:15:01.874Z,581.08
2019-06-26T18:17:34.271Z,578.25
2019-06-26T18:20:10.683Z,589.55
2019-06-26T18:22:43.982Z,578.17
2019-06-26T18:25:16.821Z,551.80
2019-06-26T18:27:49.298Z,524.77
2019-06-26T18:30:22.887Z,544.37
2019-06-26T18:32:55.360Z,546.12
2019-06-26T18:35:29.741Z,562.27
2019-06-26T18:38:02.027Z,522.35
2019-06-26T18:40:35.309Z,570.12
2019-06-26T18:43:07.598Z,596.63
2019-06-26T18:45:39.897Z,617.08
2019-06-26T18:48:12.172Z,623.13
2019-06-26T18:50:44.422Z,503.95
2019-06-26T18:53:16.795Z,510.10
2019-06-26T18:55:49.125Z,479.30
2019-06-26T18:58:21.435Z,531.02
2019-06-26T19:00:53.738Z,502.07
2019-06-26T19:03:26.046Z,580.33
2019-06-26T19:05:58.343Z,605.22
2019-06-26T19:08:30.609Z,626.22
2019-06-26T19:11:03.907Z,586.08
2019-06-26T19:13:36.199Z,534.55
2019-06-26T19:16:08.555Z,595.73
2019-06-26T19:18:42.905Z,603.77
2019-06-26T19:21:15.334Z,585.25
2019-06-26T19:23:47.664Z,605.08
2019-06-26T19:26:19.983Z,595.38
2019-06-26T19:28:52.283Z,638.50
2019-06-26T19:31:24.597Z,575.72
2019-06-26T19:33:58.187Z,589.43
2019-06-26T19:36:31.570Z,631.70
2019-06-26T19:39:05.469Z,603.70
2019-06-26T19:41:39.514Z,627.73
2019-06-26T19:44:11.801Z,541.12
2019-06-26T19:46:44.274Z,568.17
2019-06-26T19:49:16.595Z,593.63
2019-06-26T19:51:48.878Z,541.03
2019-06-26T19:54:26.906Z,542.67
2019-06-26T19:56:55.212Z,494.85
2019-06-26T19:59:27.548Z,466.70
2019-06-26T20:01:59.867Z,478.63
2019-06-26T20:04:32.156Z,576.47
2019-06-26T20:07:05.621Z,598.90
2019-06-26T20:09:37.989Z,513.70
2019-06-26T20:12:10.338Z,492.77
2019-06-26T20:14:42.562Z,645.43
2019-06-26T20:17:14.984Z,600.97
2019-06-26T20:19:47.199Z,676.90
2019-06-26T20:22:19.534Z,675.00
2019-06-26T20:24:51.780Z,602.93
2019-06-26T20:27:24.108Z,662.07
2019-06-26T20:29:56.326Z,527.42
2019-06-26T20:32:28.602Z,665.27
2019-06-26T20:35:00.839Z,684.07
2019-06-26T20:37:33.142Z,650.13
2019-06-26T20:40:09.486Z,689.10
2019-06-26T20:42:41.774Z,629.47
2019-06-26T20:45:15.288Z,580.80
2019-06-26T20:47:47.496Z,574.77
2019-06-26T20:50:19.785Z,561.62
2019-06-26T20:52:53.057Z,518.80
2019-06-26T20:55:25.310Z,519.25
2019-06-26T20:57:57.630Z,489.27
2019-06-26T21:00:29.932Z,519.30
2019-06-26T21:03:02.320Z,527.90
2019-06-26T21:05:34.784Z,535.80
2019-06-26T21:08:08.100Z,507.38
2019-06-26T21:10:40.421Z,478.90
2019-06-26T21:13:12.714Z,464.95
2019-06-26T21:15:45.016Z,480.13
2019-06-26T21:18:17.344Z,459.25
2019-06-26T21:20:50.580Z,484.27
2019-06-26T21:23:23.643Z,447.30
2019-06-26T21:25:57.041Z,475.98
2019-06-26T21:28:29.353Z,458.12
2019-06-26T21:31:01.706Z,493.57
2019-06-26T21:33:34.097Z,476.33
2019-06-26T21:36:07.426Z,473.30
2019-06-26T21:38:39.717Z,486.05
2019-06-26T21:41:12.017Z,478.27
2019-06-26T21:43:44.454Z,486.45
2019-06-26T21:46:16.659Z,501.77
2019-06-26T21:48:49.013Z,455.50
2019-06-26T21:51:22.403Z,506.37
2019-06-26T21:53:54.707Z,520.70
2019-06-26T21:56:44.741Z,507.85
2019-06-26T21:59:34.813Z,502.52
2019-06-26T22:02:24.603Z,510.67
2019-06-26T22:04:58.442Z,516.53
2019-06-26T22:07:37.977Z,525.90
2019-06-26T22:10:14.701Z,525.12
2019-06-26T22:12:48.161Z,533.15
2019-06-26T22:15:21.526Z,525.12
2019-06-26T22:17:55.023Z,529.65
2019-06-26T22:20:27.310Z,556.83
2019-06-26T22:22:59.606Z,519.90
2019-06-26T22:25:31.893Z,550.75
2019-06-26T22:28:04.345Z,535.33
2019-06-26T22:30:36.680Z,556.87
2019-06-26T22:33:08.993Z,551.40
2019-06-26T22:35:42.817Z,544.47
2019-06-26T22:38:16.270Z,540.70
2019-06-26T22:40:50.568Z,539.83
2019-06-26T22:43:22.849Z,547.60
2019-06-26T22:45:55.078Z,475.40
2019-06-26T22:48:27.377Z,544.37
2019-06-26T22:50:59.723Z,574.27
2019-06-26T22:53:33.050Z,545.50
2019-06-26T22:56:08.066Z,535.43
2019-06-26T22:58:39.389Z,650.22
2019-06-26T23:01:11.722Z,648.53
2019-06-26T23:03:43.988Z,574.13
2019-06-26T23:06:16.331Z,608.40
2019-06-26T23:08:48.617Z,605.30
2019-06-26T23:11:21.096Z,473.85
2019-06-26T23:13:53.384Z,475.00
2019-06-26T23:16:26.647Z,508.73
2019-06-26T23:18:58.953Z,545.63
2019-06-26T23:21:31.291Z,526.45
2019-06-26T23:24:03.651Z,527.05
2019-06-26T23:26:35.919Z,580.60
2019-06-26T23:29:09.167Z,597.37
2019-06-26T23:31:43.432Z,510.40
2019-06-26T23:34:15.756Z,590.88
2019-06-26T23:36:48.054Z,550.93
2019-06-26T23:39:20.443Z,533.87
2019-06-26T23:41:52.773Z,584.90
2019-06-26T23:44:25.226Z,562.07
2019-06-26T23:46:57.537Z,511.17
2019-06-26T23:49:30.855Z,578.83
2019-06-26T23:52:03.195Z,643.90
2019-06-26T23:54:35.522Z,626.67
2019-06-26T23:57:07.887Z,647.03
2019-06-26T23:59:40.172Z,656.63
